Time;durP1;ratioP1;P1;durP2;ratioP2;P2;SDS_P1;SDS_P2;PMS_P1;PMS_P2;Temp;Humidity;BMP_temperature;BMP_pressure;BME280_temperature;BME280_humidity;BME280_pressure;Samples;Min_cycle;Max_cycle;Signal;HPM_P1;HPM_P2
2022/10/16 00:01:40;;;;;;;7.80;6.50;;;;;;;;;;105218;1295;22486;-25
2022/10/16 00:04:14;;;;;;;8.40;7.20;;;;;;;;;;105268;1303;22477;-25
2022/10/16 00:06:46;;;;;;;8.80;6.70;;;;;;;;;;105287;1300;26403;-25
2022/10/16 00:09:19;;;;;;;8.90;6.70;;;;;;;;;;105368;1300;23181;-26
2022/10/16 00:11:51;;;;;;;8.30;7.00;;;;;;;;;;105343;1300;25370;-26
2022/10/16 00:14:23;;;;;;;8.10;7.00;;;;;;;;;;105350;1301;22628;-26
2022/10/16 00:16:55;;;;;;;7.70;6.40;;;;;;;;;;105248;1301;22557;-26
2022/10/16 00:19:27;;;;;;;8.70;7.30;;;;;;;;;;105251;1299;22476;-26
2022/10/16 00:21:59;;;;;;;9.80;7.50;;;;;;;;;;105207;1304;22468;-26
2022/10/16 00:24:32;;;;;;;8.60;7.40;;;;;;;;;;105253;1303;22474;-27
2022/10/16 00:27:05;;;;;;;8.60;7.40;;;;;;;;;;105257;1300;22478;-26
2022/10/16 00:29:37;;;;;;;8.20;7.00;;;;;;;;;;105342;1298;22623;-25
2022/10/16 00:32:09;;;;;;;8.60;7.50;;;;;;;;;;105339;1299;22492;-26
2022/10/16 00:34:42;;;;;;;8.70;7.40;;;;;;;;;;105342;1301;22503;-25
2022/10/16 00:37:14;;;;;;;8.30;7.20;;;;;;;;;;105265;1300;22475;-25
2022/10/16 00:39:46;;;;;;;8.90;7.60;;;;;;;;;;105246;1290;22505;-25
2022/10/16 00:42:20;;;;;;;8.90;7.60;;;;;;;;;;105263;1297;22669;-27
2022/10/16 00:44:56;;;;;;;8.40;7.50;;;;;;;;;;105221;1303;22552;-27
2022/10/16 00:47:33;;;;;;;8.70;7.30;;;;;;;;;;105280;1302;22468;-27
2022/10/16 00:50:14;;;;;;;9.50;7.80;;;;;;;;;;105350;1288;25221;-27
2022/10/16 00:52:53;;;;;;;8.60;7.00;;;;;;;;;;105371;1292;22466;-26
2022/10/16 00:55:27;;;;;;;9.40;7.90;;;;;;;;;;105336;1295;25211;-25
2022/10/16 00:58:00;;;;;;;8.70;7.20;;;;;;;;;;105218;1307;22664;-25
2022/10/16 01:00:32;;;;;;;8.70;7.80;;;;;;;;;;105233;1294;22471;-25
2022/10/16 01:03:28;;;;;;;9.10;7.50;;;;;;;;;;105258;1296;22471;-26
2022/10/16 01:06:29;;;;;;;8.30;7.00;;;;;;;;;;105256;1307;22487;-26
2022/10/16 01:09:17;;;;;;;8.70;7.10;;;;;;;;;;105311;1297;22568;-26
2022/10/16 01:12:05;;;;;;;8.70;7.30;;;;;;;;;;105359;1285;22504;-26
2022/10/16 01:14:47;;;;;;;9.10;8.00;;;;;;;;;;105350;1300;22472;-27
2022/10/16 01:17:24;;;;;;;9.10;7.90;;;;;;;;;;105292;1300;22485;-26
2022/10/16 01:20:13;;;;;;;8.90;7.30;;;;;;;;;;105264;1294;25228;-26
2022/10/16 01:23:03;;;;;;;8.60;7.50;;;;;;;;;;105292;1300;22474;-25
2022/10/16 01:26:04;;;;;;;9.40;8.00;;;;;;;;;;105281;1300;22491;-26
2022/10/16 01:28:43;;;;;;;8.80;7.40;;;;;;;;;;105253;1298;22470;-26
2022/10/16 01:31:18;;;;;;;8.80;7.90;;;;;;;;;;105335;1294;22499;-26
2022/10/16 01:33:57;;;;;;;9.20;7.80;;;;;;;;;;105361;1300;22474;-26
2022/10/16 01:36:38;;;;;;;8.90;8.00;;;;;;;;;;105359;1300;22652;-26
2022/10/16 01:39:13;;;;;;;9.70;8.10;;;;;;;;;;105244;1300;22470;-26
2022/10/16 01:41:53;;;;;;;9.40;8.00;;;;;;;;;;105273;1307;22507;-27
2022/10/16 01:44:29;;;;;;;9.10;7.80;;;;;;;;;;105279;1300;22487;-27
2022/10/16 01:47:02;;;;;;;9.80;8.00;;;;;;;;;;105252;1304;22477;-26
2022/10/16 01:49:38;;;;;;;9.30;8.10;;;;;;;;;;105328;1294;22590;-26
2022/10/16 01:52:15;;;;;;;8.90;7.90;;;;;;;;;;105365;1300;22493;-26
2022/10/16 01:54:53;;;;;;;9.10;8.20;;;;;;;;;;105399;1298;22791;-27
2022/10/16 01:57:29;;;;;;;8.80;7.90;;;;;;;;;;105376;1301;22485;-26
2022/10/16 02:00:10;;;;;;;9.40;8.00;;;;;;;;;;105202;1301;22494;-27
2022/10/16 02:02:48;;;;;;;9.30;7.80;;;;;;;;;;105264;1303;22480;-26
2022/10/16 02:05:28;;;;;;;8.90;7.80;;;;;;;;;;105251;1301;22499;-26
2022/10/16 02:08:00;;;;;;;9.00;8.10;;;;;;;;;;105221;1301;22503;-26
2022/10/16 02:10:32;;;;;;;9.10;8.10;;;;;;;;;;105364;1300;25496;-26
2022/10/16 02:13:11;;;;;;;8.60;7.70;;;;;;;;;;105388;1294;22486;-26
2022/10/16 02:15:43;;;;;;;9.90;8.10;;;;;;;;;;105368;1292;22487;-27
2022/10/16 02:18:15;;;;;;;9.00;7.70;;;;;;;;;;105355;1297;22485;-26
2022/10/16 02:20:56;;;;;;;8.90;7.80;;;;;;;;;;105248;1285;22483;-25
2022/10/16 02:23:38;;;;;;;9.20;7.80;;;;;;;;;;105272;1294;22488;-25
2022/10/16 02:26:14;;;;;;;9.50;8.00;;;;;;;;;;105258;1295;22661;-25
2022/10/16 02:28:52;;;;;;;9.00;8.10;;;;;;;;;;105234;1302;22485;-26
2022/10/16 02:31:30;;;;;;;9.30;7.90;;;;;;;;;;105378;1298;22471;-26
2022/10/16 02:34:04;;;;;;;9.20;7.70;;;;;;;;;;105381;1300;22465;-26
2022/10/16 02:36:38;;;;;;;8.40;7.50;;;;;;;;;;105374;1301;22479;-26
2022/10/16 02:39:13;;;;;;;9.10;7.80;;;;;;;;;;105362;1302;22493;-25
2022/10/16 02:41:45;;;;;;;8.80;7.80;;;;;;;;;;105280;1301;22473;-26
2022/10/16 02:44:17;;;;;;;9.10;7.90;;;;;;;;;;105280;1303;21693;-26
2022/10/16 02:46:49;;;;;;;8.80;7.90;;;;;;;;;;105259;1301;22474;-26
2022/10/16 02:49:22;;;;;;;8.30;7.40;;;;;;;;;;105164;1302;22544;-26
2022/10/16 02:51:54;;;;;;;9.10;8.20;;;;;;;;;;105372;1300;25370;-26
2022/10/16 02:54:26;;;;;;;9.40;8.40;;;;;;;;;;105376;1299;22483;-26
2022/10/16 02:56:58;;;;;;;8.90;7.50;;;;;;;;;;105361;1294;22465;-26
2022/10/16 02:59:30;;;;;;;9.60;8.00;;;;;;;;;;105365;1300;22488;-26
2022/10/16 03:02:02;;;;;;;9.00;7.80;;;;;;;;;;105262;1297;22468;-26
2022/10/16 03:04:34;;;;;;;9.10;7.90;;;;;;;;;;105291;1294;22476;-25
2022/10/16 03:07:07;;;;;;;8.60;7.60;;;;;;;;;;105294;1300;25375;-26
2022/10/16 03:09:39;;;;;;;8.90;7.90;;;;;;;;;;105243;1293;24337;-26
2022/10/16 03:12:11;;;;;;;9.10;7.70;;;;;;;;;;105400;1300;22475;-26
2022/10/16 03:14:43;;;;;;;8.70;7.80;;;;;;;;;;105348;1287;25076;-26
2022/10/16 03:17:18;;;;;;;8.40;7.40;;;;;;;;;;105360;1298;22464;-26
2022/10/16 03:19:50;;;;;;;8.70;7.60;;;;;;;;;;105324;1296;22488;-27
2022/10/16 03:22:22;;;;;;;9.00;7.90;;;;;;;;;;105295;1301;22699;-26
2022/10/16 03:24:54;;;;;;;8.50;7.30;;;;;;;;;;105259;1300;22860;-26
2022/10/16 03:27:26;;;;;;;8.80;7.90;;;;;;;;;;105280;1294;25249;-25
2022/10/16 03:30:00;;;;;;;8.80;7.90;;;;;;;;;;105252;1295;22518;-26
2022/10/16 03:32:32;;;;;;;9.60;8.10;;;;;;;;;;105430;1300;24972;-26
2022/10/16 03:35:05;;;;;;;8.70;7.60;;;;;;;;;;105376;1300;22478;-26
2022/10/16 03:37:37;;;;;;;8.70;7.80;;;;;;;;;;105389;1294;22486;-26
2022/10/16 03:40:12;;;;;;;8.10;7.30;;;;;;;;;;105347;1300;22495;-26
2022/10/16 03:42:46;;;;;;;8.50;7.60;;;;;;;;;;105287;1294;22497;-26
2022/10/16 03:45:18;;;;;;;9.20;7.80;;;;;;;;;;105263;1302;22487;-25
2022/10/16 03:47:53;;;;;;;9.00;7.90;;;;;;;;;;105245;1300;25484;-25
2022/10/16 03:50:25;;;;;;;9.00;7.90;;;;;;;;;;105234;1302;22472;-25
2022/10/16 03:52:57;;;;;;;9.80;8.30;;;;;;;;;;105422;1304;22525;-25
2022/10/16 03:55:29;;;;;;;9.20;7.30;;;;;;;;;;105364;1300;22496;-25
2022/10/16 03:58:02;;;;;;;8.90;7.70;;;;;;;;;;105398;1283;22461;-26
2022/10/16 04:00:35;;;;;;;8.40;7.50;;;;;;;;;;105326;1300;22417;-25
2022/10/16 04:03:07;;;;;;;8.90;7.50;;;;;;;;;;105289;1294;25395;-25
2022/10/16 04:05:43;;;;;;;8.80;7.80;;;;;;;;;;105261;1300;22471;-26
2022/10/16 04:08:16;;;;;;;9.10;7.80;;;;;;;;;;105284;1297;23811;-26
2022/10/16 04:10:51;;;;;;;9.80;7.70;;;;;;;;;;105250;1295;25528;-26
2022/10/16 04:13:28;;;;;;;8.50;7.60;;;;;;;;;;105383;1285;22663;-26
2022/10/16 04:16:01;;;;;;;8.20;7.30;;;;;;;;;;105352;1291;22812;-26
2022/10/16 04:18:33;;;;;;;8.80;7.70;;;;;;;;;;105381;1307;22522;-25
2022/10/16 04:21:07;;;;;;;9.40;7.90;;;;;;;;;;105313;1294;22635;-26
2022/10/16 04:23:40;;;;;;;8.50;7.50;;;;;;;;;;105272;1300;22487;-26
2022/10/16 04:26:11;;;;;;;;;;;;;;;;;;105301;1301;22492;-26
2022/10/16 04:28:45;;;;;;;9.40;8.10;;;;;;;;;;105273;1294;22540;-26
2022/10/16 04:31:17;;;;;;;8.80;7.60;;;;;;;;;;105261;1300;22476;-26
2022/10/16 04:33:49;;;;;;;9.20;8.10;;;;;;;;;;105378;1301;22530;-27
2022/10/16 04:36:21;;;;;;;9.30;8.20;;;;;;;;;;105388;1294;22471;-26
2022/10/16 04:38:53;;;;;;;9.60;8.10;;;;;;;;;;105376;1299;22491;-26
2022/10/16 04:41:26;;;;;;;9.00;8.00;;;;;;;;;;105354;1293;23570;-26
2022/10/16 04:43:59;;;;;;;9.20;7.90;;;;;;;;;;105249;1303;22485;-25
2022/10/16 04:46:31;;;;;;;9.20;7.90;;;;;;;;;;105290;1300;22471;-25
2022/10/16 04:49:04;;;;;;;9.30;8.30;;;;;;;;;;105274;1303;22493;-25
2022/10/16 04:51:36;;;;;;;9.30;8.40;;;;;;;;;;105186;1294;22485;-25
2022/10/16 04:54:09;;;;;;;9.00;7.90;;;;;;;;;;105377;1291;22601;-26
2022/10/16 04:56:46;;;;;;;;;;;;;;;;;;105387;1304;22471;-26
2022/10/16 04:59:19;;;;;;;8.50;7.60;;;;;;;;;;105422;1300;22469;-28
2022/10/16 05:01:50;;;;;;;;;;;;;;;;;;105345;1285;25525;-26
2022/10/16 05:04:25;;;;;;;9.60;7.90;;;;;;;;;;105262;1298;22481;-26
2022/10/16 05:06:57;;;;;;;9.20;7.60;;;;;;;;;;105252;1294;22491;-26
2022/10/16 05:09:29;;;;;;;8.50;7.70;;;;;;;;;;105271;1306;22494;-25
2022/10/16 05:12:03;;;;;;;9.00;8.10;;;;;;;;;;105252;1292;22521;-26
2022/10/16 05:14:35;;;;;;;9.60;8.40;;;;;;;;;;105360;1303;22472;-26
2022/10/16 05:17:07;;;;;;;8.80;7.90;;;;;;;;;;105350;1307;22510;-26
2022/10/16 05:19:39;;;;;;;9.60;8.10;;;;;;;;;;105359;1295;24817;-25
2022/10/16 05:22:11;;;;;;;9.30;8.10;;;;;;;;;;105304;1300;22437;-25
2022/10/16 05:24:43;;;;;;;9.30;8.00;;;;;;;;;;105254;1301;26099;-26
2022/10/16 05:27:19;;;;;;;9.70;8.10;;;;;;;;;;105259;1300;22480;-26
2022/10/16 05:29:51;;;;;;;9.30;8.40;;;;;;;;;;105261;1300;26018;-26
2022/10/16 05:32:23;;;;;;;9.50;8.30;;;;;;;;;;105249;1295;22554;-26
2022/10/16 05:34:59;;;;;;;8.30;7.40;;;;;;;;;;105371;1300;22481;-25
2022/10/16 05:37:31;;;;;;;9.50;8.00;;;;;;;;;;105206;1300;218502;-25
2022/10/16 05:40:04;;;;;;;9.60;8.10;;;;;;;;;;105396;1295;25439;-25
2022/10/16 05:42:37;;;;;;;9.50;8.40;;;;;;;;;;105312;1290;22497;-26
2022/10/16 05:45:14;;;;;;;9.00;8.00;;;;;;;;;;105249;1303;22523;-25
2022/10/16 05:47:46;;;;;;;8.70;7.80;;;;;;;;;;105272;1288;22522;-26
2022/10/16 05:50:18;;;;;;;8.90;7.80;;;;;;;;;;105292;1288;22465;-26
2022/10/16 05:52:50;;;;;;;8.70;7.80;;;;;;;;;;105232;1300;22483;-25
2022/10/16 05:55:23;;;;;;;9.00;7.60;;;;;;;;;;105363;1285;22474;-27
2022/10/16 05:57:57;;;;;;;9.30;8.10;;;;;;;;;;105378;1301;22523;-26
2022/10/16 06:00:29;;;;;;;8.70;7.80;;;;;;;;;;105357;1292;23277;-26
2022/10/16 06:03:02;;;;;;;9.20;8.00;;;;;;;;;;105357;1293;22495;-26
2022/10/16 06:05:34;;;;;;;8.80;7.50;;;;;;;;;;105263;1285;22475;-26
2022/10/16 06:08:07;;;;;;;8.90;7.70;;;;;;;;;;105267;1293;22478;-26
2022/10/16 06:10:38;;;;;;;8.90;7.50;;;;;;;;;;105241;1285;25206;-26
2022/10/16 06:13:11;;;;;;;9.00;7.60;;;;;;;;;;105214;1296;22543;-26
2022/10/16 06:15:43;;;;;;;8.80;7.70;;;;;;;;;;105338;1301;22482;-26
2022/10/16 06:18:15;;;;;;;9.20;8.20;;;;;;;;;;105358;1307;25265;-26
2022/10/16 06:20:47;;;;;;;8.90;8.00;;;;;;;;;;105369;1285;25411;-26
2022/10/16 06:23:19;;;;;;;8.80;7.80;;;;;;;;;;105347;1300;22477;-26
2022/10/16 06:25:51;;;;;;;8.50;7.60;;;;;;;;;;105208;1301;22498;-25
2022/10/16 06:28:26;;;;;;;9.10;8.00;;;;;;;;;;105220;1293;25525;-26
2022/10/16 06:31:08;;;;;;;9.40;7.60;;;;;;;;;;105278;1292;22514;-26
2022/10/16 06:33:41;;;;;;;9.00;7.90;;;;;;;;;;105239;1301;22491;-27
2022/10/16 06:36:17;;;;;;;8.40;7.40;;;;;;;;;;105404;1300;22937;-25
2022/10/16 06:38:49;;;;;;;8.60;7.50;;;;;;;;;;105390;1281;25459;-26
2022/10/16 06:41:23;;;;;;;9.00;8.10;;;;;;;;;;105390;1295;24328;-25
2022/10/16 06:44:11;;;;;;;8.80;7.80;;;;;;;;;;105242;1301;22529;-25
2022/10/16 06:46:43;;;;;;;9.10;7.90;;;;;;;;;;105264;1300;22482;-26
2022/10/16 06:49:21;;;;;;;9.30;8.20;;;;;;;;;;105231;1307;22488;-25
2022/10/16 06:51:53;;;;;;;8.70;7.80;;;;;;;;;;105296;1300;22473;-27
2022/10/16 06:54:27;;;;;;;8.90;7.90;;;;;;;;;;105280;1294;22465;-25
2022/10/16 06:56:59;;;;;;;9.10;8.10;;;;;;;;;;105397;1294;22806;-26
2022/10/16 06:59:31;;;;;;;8.60;7.70;;;;;;;;;;105361;1285;24269;-26
2022/10/16 07:02:04;;;;;;;8.80;7.80;;;;;;;;;;105370;1300;22485;-26
2022/10/16 07:04:37;;;;;;;8.60;7.70;;;;;;;;;;105270;1292;22482;-25
2022/10/16 07:07:08;;;;;;;;;;;;;;;;;;105287;1301;22456;-26
2022/10/16 07:09:40;;;;;;;8.50;7.50;;;;;;;;;;105251;1294;22485;-26
2022/10/16 07:12:13;;;;;;;8.70;7.80;;;;;;;;;;105272;1293;22713;-26
2022/10/16 07:14:45;;;;;;;8.50;7.60;;;;;;;;;;105262;1308;22480;-27
2022/10/16 07:17:17;;;;;;;8.70;7.60;;;;;;;;;;105365;1300;22474;-26
2022/10/16 07:19:52;;;;;;;8.40;7.40;;;;;;;;;;105371;1285;22481;-26
2022/10/16 07:22:24;;;;;;;9.10;7.90;;;;;;;;;;105371;1297;22485;-26
2022/10/16 07:24:56;;;;;;;8.90;8.00;;;;;;;;;;105316;1277;22470;-26
2022/10/16 07:27:28;;;;;;;8.70;7.50;;;;;;;;;;105145;1292;22492;-26
2022/10/16 07:30:01;;;;;;;8.70;7.80;;;;;;;;;;105256;1300;22467;-26
2022/10/16 07:32:33;;;;;;;8.80;7.80;;;;;;;;;;105320;1298;22481;-25
2022/10/16 07:35:09;;;;;;;8.90;7.80;;;;;;;;;;105222;1300;22478;-26
2022/10/16 07:37:44;;;;;;;8.10;7.20;;;;;;;;;;105304;1300;22496;-26
2022/10/16 07:40:19;;;;;;;8.60;7.70;;;;;;;;;;105304;1302;22546;-26
2022/10/16 07:42:53;;;;;;;8.30;7.40;;;;;;;;;;105331;1300;22495;-26
2022/10/16 07:45:27;;;;;;;9.10;8.10;;;;;;;;;;105298;1294;22596;-26
2022/10/16 07:47:59;;;;;;;8.30;7.20;;;;;;;;;;105287;1287;22545;-26
2022/10/16 07:50:31;;;;;;;8.30;7.50;;;;;;;;;;105309;1300;22509;-26
2022/10/16 07:53:03;;;;;;;8.60;7.60;;;;;;;;;;105318;1294;22777;-26
2022/10/16 07:55:38;;;;;;;9.10;8.10;;;;;;;;;;105282;1300;22562;-27
2022/10/16 07:58:11;;;;;;;8.50;7.20;;;;;;;;;;105323;1300;22881;-26
2022/10/16 08:00:43;;;;;;;8.40;7.40;;;;;;;;;;105341;1297;22495;-25
2022/10/16 08:03:15;;;;;;;7.70;6.70;;;;;;;;;;105317;1299;22461;-25
2022/10/16 08:05:49;;;;;;;8.30;7.20;;;;;;;;;;105283;1300;22484;-26
2022/10/16 08:08:22;;;;;;;8.60;7.70;;;;;;;;;;105289;1301;22515;-26
2022/10/16 08:10:54;;;;;;;7.80;7.00;;;;;;;;;;105338;1294;22483;-26
2022/10/16 08:13:27;;;;;;;9.00;8.00;;;;;;;;;;105322;1292;22560;-25
2022/10/16 08:16:00;;;;;;;10.30;8.20;;;;;;;;;;105268;1303;25211;-26
2022/10/16 08:18:32;;;;;;;10.80;7.90;;;;;;;;;;105303;1298;22472;-26
2022/10/16 08:21:04;;;;;;;8.60;7.30;;;;;;;;;;105278;1301;22535;-26
2022/10/16 08:23:37;;;;;;;11.40;7.70;;;;;;;;;;105306;1294;25232;-26
2022/10/16 08:26:10;;;;;;;9.40;7.70;;;;;;;;;;105244;1293;22521;-26
2022/10/16 08:28:42;;;;;;;9.60;7.20;;;;;;;;;;105292;1300;25477;-25
2022/10/16 08:31:18;;;;;;;9.20;7.80;;;;;;;;;;105287;1307;22514;-26
2022/10/16 08:33:51;;;;;;;8.90;7.50;;;;;;;;;;105313;1290;25826;-25
2022/10/16 08:36:24;;;;;;;11.20;7.60;;;;;;;;;;105251;1295;22487;-26
2022/10/16 08:38:56;;;;;;;9.10;7.70;;;;;;;;;;105295;1292;22628;-25
2022/10/16 08:42:10;;;;;;;9.30;7.30;;;;;;;;;;105271;1294;22498;-26
2022/10/16 08:45:15;;;;;;;9.60;7.50;;;;;;;;;;105299;1302;22499;-26
2022/10/16 08:48:01;;;;;;;9.80;8.20;;;;;;;;;;105203;1295;22550;-24
2022/10/16 08:50:39;;;;;;;9.30;7.60;;;;;;;;;;105235;1294;22870;-24
2022/10/16 08:53:20;;;;;;;9.20;7.90;;;;;;;;;;105234;1305;22738;-27
2022/10/16 08:55:54;;;;;;;9.60;7.70;;;;;;;;;;105189;1299;22682;-26
2022/10/16 08:58:31;;;;;;;11.10;8.00;;;;;;;;;;105257;1299;22902;-27
2022/10/16 09:01:11;;;;;;;9.90;7.80;;;;;;;;;;105281;1293;22492;-27
2022/10/16 09:04:06;;;;;;;10.40;8.10;;;;;;;;;;105267;1295;22474;-27
2022/10/16 09:06:57;;;;;;;8.90;7.70;;;;;;;;;;105221;1286;22478;-26
2022/10/16 09:09:49;;;;;;;9.20;8.00;;;;;;;;;;105219;1292;22478;-26
2022/10/16 09:12:27;;;;;;;11.50;7.80;;;;;;;;;;105229;1294;22524;-26
2022/10/16 09:15:13;;;;;;;10.70;8.00;;;;;;;;;;105232;1294;22478;-27
2022/10/16 09:17:55;;;;;;;10.30;7.70;;;;;;;;;;105200;1294;22481;-26
2022/10/16 09:20:45;;;;;;;9.90;7.60;;;;;;;;;;105326;1304;22434;-27
2022/10/16 09:23:23;;;;;;;10.70;8.30;;;;;;;;;;105334;1294;22599;-26
2022/10/16 09:25:58;;;;;;;9.30;8.10;;;;;;;;;;105327;1301;22502;-26
2022/10/16 09:28:30;;;;;;;9.80;7.80;;;;;;;;;;105259;1289;22505;-26
2022/10/16 09:31:02;;;;;;;11.50;8.30;;;;;;;;;;105361;1300;22484;-27
2022/10/16 09:33:39;;;;;;;11.00;8.20;;;;;;;;;;105370;1304;22801;-26
2022/10/16 09:36:13;;;;;;;8.60;7.50;;;;;;;;;;105387;1295;22464;-27
2022/10/16 09:38:45;;;;;;;9.40;7.40;;;;;;;;;;105340;1301;22481;-27
2022/10/16 09:41:25;;;;;;;9.20;7.90;;;;;;;;;;105360;1294;21713;-26
2022/10/16 09:44:00;;;;;;;9.30;7.80;;;;;;;;;;105359;1294;22496;-27
2022/10/16 09:46:35;;;;;;;10.30;8.30;;;;;;;;;;105380;1291;22477;-26
2022/10/16 09:49:25;;;;;;;10.20;7.90;;;;;;;;;;105380;1300;22475;-27
2022/10/16 09:52:14;;;;;;;11.00;8.50;;;;;;;;;;105617;1294;22478;-26
2022/10/16 09:54:56;;;;;;;9.60;8.30;;;;;;;;;;105347;1286;23860;-27
2022/10/16 09:57:30;;;;;;;9.70;7.80;;;;;;;;;;105314;1298;26789;-26
2022/10/16 10:00:10;;;;;;;9.10;8.10;;;;;;;;;;105397;1293;22506;-26
2022/10/16 10:02:42;;;;;;;8.90;7.40;;;;;;;;;;105369;1300;22474;-26
2022/10/16 10:05:25;;;;;;;9.80;7.90;;;;;;;;;;105382;1295;22471;-26
2022/10/16 10:08:05;;;;;;;9.80;8.20;;;;;;;;;;105349;1295;22491;-27
2022/10/16 10:10:46;;;;;;;8.80;7.80;;;;;;;;;;105377;1297;22488;-26
2022/10/16 10:13:26;;;;;;;8.60;7.70;;;;;;;;;;105327;1300;22478;-27
2022/10/16 10:15:59;;;;;;;9.10;8.10;;;;;;;;;;105347;1300;22489;-26
2022/10/16 10:18:34;;;;;;;9.10;8.00;;;;;;;;;;105305;1297;22492;-26
2022/10/16 10:21:13;;;;;;;9.50;7.10;;;;;;;;;;105372;1294;22460;-26
2022/10/16 10:23:48;;;;;;;8.30;7.40;;;;;;;;;;105293;1296;22479;-26
2022/10/16 10:26:27;;;;;;;9.20;7.80;;;;;;;;;;105239;1285;22566;-26
2022/10/16 10:29:09;;;;;;;9.00;7.90;;;;;;;;;;105187;1298;22530;-26
2022/10/16 10:31:55;;;;;;;9.00;8.00;;;;;;;;;;105300;1301;22465;-26
2022/10/16 10:34:48;;;;;;;9.10;7.50;;;;;;;;;;105275;1294;24420;-26
2022/10/16 10:37:46;;;;;;;8.60;7.70;;;;;;;;;;105295;1301;22509;-26
2022/10/16 10:40:35;;;;;;;8.40;7.40;;;;;;;;;;105283;1297;22515;-26
2022/10/16 10:43:19;;;;;;;8.60;7.60;;;;;;;;;;105328;1301;22498;-26
2022/10/16 10:45:58;;;;;;;8.90;7.40;;;;;;;;;;105377;1297;22468;-26
2022/10/16 10:48:53;;;;;;;8.30;7.30;;;;;;;;;;105412;1295;25372;-26
2022/10/16 10:51:36;;;;;;;9.70;7.80;;;;;;;;;;105272;1286;22499;-25
2022/10/16 10:54:19;;;;;;;9.00;7.50;;;;;;;;;;105280;1290;22489;-25
2022/10/16 10:57:01;;;;;;;8.70;7.60;;;;;;;;;;105333;1286;22636;-26
2022/10/16 11:00:02;;;;;;;8.40;7.40;;;;;;;;;;105265;1295;22488;-26
2022/10/16 11:02:41;;;;;;;8.90;7.50;;;;;;;;;;105338;1294;22497;-26
2022/10/16 11:05:44;;;;;;;8.60;7.20;;;;;;;;;;105340;1293;22465;-27
2022/10/16 11:08:23;;;;;;;8.40;7.20;;;;;;;;;;105305;1293;22473;-27
2022/10/16 11:11:01;;;;;;;8.00;7.20;;;;;;;;;;105254;1293;22475;-26
2022/10/16 11:13:39;;;;;;;8.50;7.10;;;;;;;;;;105261;1290;22819;-27
2022/10/16 11:16:22;;;;;;;8.40;7.50;;;;;;;;;;105249;1301;22492;-26
2022/10/16 11:19:03;;;;;;;8.00;7.20;;;;;;;;;;105271;1295;24622;-27
2022/10/16 11:21:50;;;;;;;8.00;7.20;;;;;;;;;;105287;1285;22484;-26
2022/10/16 11:24:36;;;;;;;9.10;8.10;;;;;;;;;;105341;1300;22479;-26
2022/10/16 11:27:18;;;;;;;8.20;7.30;;;;;;;;;;105387;1284;24947;-26
2022/10/16 11:29:59;;;;;;;9.50;7.50;;;;;;;;;;105284;1300;22504;-27
2022/10/16 11:32:37;;;;;;;8.40;6.80;;;;;;;;;;105277;1303;22481;-27
2022/10/16 11:35:20;;;;;;;8.00;7.00;;;;;;;;;;105303;1296;22484;-26
2022/10/16 11:37:55;;;;;;;8.40;7.10;;;;;;;;;;105292;1294;22478;-26
2022/10/16 11:40:34;;;;;;;8.50;7.50;;;;;;;;;;105319;1304;22485;-26
2022/10/16 11:43:14;;;;;;;8.70;7.00;;;;;;;;;;105402;1302;22495;-27
2022/10/16 11:45:52;;;;;;;8.10;7.00;;;;;;;;;;105355;1288;22533;-26
2022/10/16 11:48:33;;;;;;;7.70;6.80;;;;;;;;;;105392;1300;22503;-27
2022/10/16 11:51:17;;;;;;;8.20;7.20;;;;;;;;;;105282;1302;22492;-27
2022/10/16 11:53:58;;;;;;;8.50;7.50;;;;;;;;;;105267;1288;22484;-27
2022/10/16 11:56:32;;;;;;;7.90;6.90;;;;;;;;;;105293;1307;22500;-26
2022/10/16 11:59:12;;;;;;;8.50;7.60;;;;;;;;;;105411;1301;22506;-25
2022/10/16 12:01:51;;;;;;;8.30;7.50;;;;;;;;;;105349;1301;22478;-26
2022/10/16 12:04:33;;;;;;;8.60;7.50;;;;;;;;;;105363;1293;25476;-27
2022/10/16 12:07:09;;;;;;;7.60;6.70;;;;;;;;;;105245;1297;22472;-27
2022/10/16 12:09:43;;;;;;;7.70;6.80;;;;;;;;;;105360;1288;22482;-26
2022/10/16 12:12:39;;;;;;;8.30;7.00;;;;;;;;;;105236;1288;26491;-26
2022/10/16 12:15:30;;;;;;;8.50;7.60;;;;;;;;;;105242;1294;22475;-26
2022/10/16 12:18:04;;;;;;;7.60;6.80;;;;;;;;;;105279;1294;25242;-25
2022/10/16 12:20:38;;;;;;;8.20;7.00;;;;;;;;;;105268;1289;25365;-25
2022/10/16 12:23:23;;;;;;;9.00;7.20;;;;;;;;;;105315;1294;22529;-25
2022/10/16 12:26:02;;;;;;;8.90;7.30;;;;;;;;;;105320;1294;25419;-26
2022/10/16 12:28:36;;;;;;;8.20;7.10;;;;;;;;;;105353;1302;22476;-26
2022/10/16 12:31:12;;;;;;;7.70;6.90;;;;;;;;;;105264;1304;22497;-25
2022/10/16 12:33:59;;;;;;;8.30;7.40;;;;;;;;;;105254;1303;22476;-26
2022/10/16 12:36:34;;;;;;;8.40;7.60;;;;;;;;;;105224;1301;22482;-26
2022/10/16 12:39:17;;;;;;;8.10;7.00;;;;;;;;;;105263;1288;22481;-25
2022/10/16 12:41:49;;;;;;;8.30;7.10;;;;;;;;;;105218;1294;22480;-26
2022/10/16 12:44:27;;;;;;;8.60;7.50;;;;;;;;;;105288;1293;22475;-26
2022/10/16 12:47:02;;;;;;;8.10;7.30;;;;;;;;;;105381;1306;22495;-26
2022/10/16 12:49:41;;;;;;;8.00;6.80;;;;;;;;;;105320;1308;24177;-26
2022/10/16 12:55:21;;;;;;;8.00;6.80;;;;;;;;;;101932;1341;548570;-26
2022/10/16 12:58:14;;;;;;;8.20;6.90;;;;;;;;;;104826;1304;22745;-26
2022/10/16 13:00:58;;;;;;;8.00;7.20;;;;;;;;;;104819;1305;23068;-26
2022/10/16 13:04:07;;;;;;;7.80;7.00;;;;;;;;;;104826;1301;22534;-26
2022/10/16 13:06:49;;;;;;;8.30;7.30;;;;;;;;;;104564;1316;25219;-26
2022/10/16 13:09:44;;;;;;;8.10;6.90;;;;;;;;;;104677;1316;323250;-27
2022/10/16 13:12:41;;;;;;;8.10;7.20;;;;;;;;;;104993;1309;22518;-26
2022/10/16 13:15:36;;;;;;;8.10;6.70;;;;;;;;;;104888;1306;22496;-26
2022/10/16 13:18:17;;;;;;;7.60;6.70;;;;;;;;;;105029;1304;22501;-26
2022/10/16 13:21:11;;;;;;;7.40;6.50;;;;;;;;;;105020;1310;22484;-26
2022/10/16 13:23:59;;;;;;;7.80;7.00;;;;;;;;;;105007;1306;22907;-26
2022/10/16 13:26:41;;;;;;;8.30;7.20;;;;;;;;;;104913;1306;22515;-26
2022/10/16 13:29:14;;;;;;;7.50;6.60;;;;;;;;;;104950;1313;22488;-26
2022/10/16 13:31:49;;;;;;;;;;;;;;;;;;104926;1313;22452;-26
2022/10/16 13:34:27;;;;;;;7.90;6.90;;;;;;;;;;104904;1313;22529;-26
2022/10/16 13:36:59;;;;;;;7.40;6.70;;;;;;;;;;104893;1313;22501;-26
2022/10/16 13:39:33;;;;;;;8.00;6.80;;;;;;;;;;104968;1306;22484;-26
2022/10/16 13:42:14;;;;;;;7.40;6.40;;;;;;;;;;104958;1308;22482;-27
2022/10/16 13:44:50;;;;;;;7.70;6.90;;;;;;;;;;104969;1301;22536;-26
2022/10/16 13:47:28;;;;;;;7.80;6.30;;;;;;;;;;104860;1307;25965;-27
2022/10/16 13:50:09;;;;;;;7.50;6.20;;;;;;;;;;104901;1300;25239;-26
2022/10/16 13:52:42;;;;;;;8.60;7.10;;;;;;;;;;104913;1307;22717;-27
2022/10/16 13:55:18;;;;;;;7.60;6.80;;;;;;;;;;104908;1313;22474;-26
2022/10/16 13:57:50;;;;;;;7.80;6.90;;;;;;;;;;105010;1306;22481;-27
2022/10/16 14:00:29;;;;;;;7.30;6.40;;;;;;;;;;104910;1306;22483;-26
2022/10/16 14:03:13;;;;;;;8.20;7.30;;;;;;;;;;104912;1309;25270;-26
2022/10/16 14:05:52;;;;;;;7.10;6.30;;;;;;;;;;104859;1314;22493;-27
2022/10/16 14:08:26;;;;;;;7.50;6.10;;;;;;;;;;105269;1301;22496;-25
2022/10/16 14:11:01;;;;;;;7.80;6.50;;;;;;;;;;105303;1307;22507;-25
2022/10/16 14:13:39;;;;;;;7.60;6.80;;;;;;;;;;105277;1298;25271;-26
2022/10/16 14:16:21;;;;;;;7.90;6.50;;;;;;;;;;105250;1305;22471;-26
2022/10/16 14:19:02;;;;;;;7.70;6.60;;;;;;;;;;105382;1306;22471;-25
2022/10/16 14:21:35;;;;;;;7.20;6.30;;;;;;;;;;105374;1307;22456;-26
2022/10/16 14:24:27;;;;;;;7.70;6.50;;;;;;;;;;105340;1298;22474;-25
2022/10/16 14:27:00;;;;;;;7.80;7.00;;;;;;;;;;105302;1308;22502;-27
2022/10/16 14:29:34;;;;;;;8.00;6.80;;;;;;;;;;105268;1306;22481;-26
2022/10/16 14:32:22;;;;;;;7.80;6.60;;;;;;;;;;105264;1305;22480;-26
2022/10/16 14:34:58;;;;;;;7.90;6.80;;;;;;;;;;105244;1304;22424;-26
2022/10/16 14:37:31;;;;;;;7.30;6.30;;;;;;;;;;105244;1305;22482;-26
2022/10/16 14:40:12;;;;;;;8.10;6.80;;;;;;;;;;105329;1301;22474;-23
2022/10/16 14:42:48;;;;;;;7.10;6.40;;;;;;;;;;105353;1303;22488;-23
2022/10/16 14:45:24;;;;;;;8.60;7.30;;;;;;;;;;105337;1302;22835;-23
2022/10/16 14:48:00;;;;;;;7.70;6.50;;;;;;;;;;105243;1299;22531;-23
2022/10/16 14:50:32;;;;;;;7.60;6.50;;;;;;;;;;105306;1287;22466;-23
2022/10/16 14:53:14;;;;;;;8.20;6.40;;;;;;;;;;105272;1295;22434;-23
2022/10/16 14:55:49;;;;;;;7.20;6.50;;;;;;;;;;105225;1306;22478;-23
2022/10/16 14:58:26;;;;;;;7.90;6.80;;;;;;;;;;105174;1303;22488;-23
2022/10/16 15:01:06;;;;;;;7.80;6.80;;;;;;;;;;105316;1304;22484;-23
2022/10/16 15:03:39;;;;;;;7.40;6.50;;;;;;;;;;105332;1306;22554;-24
2022/10/16 15:06:21;;;;;;;7.80;6.20;;;;;;;;;;105318;1306;22449;-26
2022/10/16 15:08:53;;;;;;;7.40;6.20;;;;;;;;;;105241;1299;22524;-26
2022/10/16 15:11:25;;;;;;;7.20;6.20;;;;;;;;;;105251;1305;22515;-26
2022/10/16 15:13:57;;;;;;;7.50;6.70;;;;;;;;;;105286;1293;22485;-26
2022/10/16 15:16:29;;;;;;;7.60;6.50;;;;;;;;;;105230;1301;22483;-26
2022/10/16 15:19:02;;;;;;;8.10;6.60;;;;;;;;;;105280;1299;22507;-26
2022/10/16 15:21:35;;;;;;;7.50;6.50;;;;;;;;;;105348;1307;22476;-26
2022/10/16 15:24:14;;;;;;;8.90;7.20;;;;;;;;;;105310;1307;22493;-26
2022/10/16 15:26:46;;;;;;;7.50;6.40;;;;;;;;;;105350;1307;22469;-26
2022/10/16 15:29:19;;;;;;;7.60;6.60;;;;;;;;;;105265;1296;25464;-26
2022/10/16 15:31:51;;;;;;;7.10;6.30;;;;;;;;;;105290;1286;25339;-26